sensor_id;sensor_type;location;lat;lon;timestamp;pressure;altitude;pressure_sealevel;temperature;humidity
64739;BME280;51175;51.186;0.276;2023-04-06T00:00:21;101211.06;;;14.72;64.41
64739;BME280;51175;51.186;0.276;2023-04-06T00:00:52;101217.16;;;14.72;64.60
64739;BME280;51175;51.186;0.276;2023-04-06T00:01:23;101217.16;;;14.72;64.43
64739;BME280;51175;51.186;0.276;2023-04-06T00:01:53;101212.63;;;14.73;64.54
64739;BME280;51175;51.186;0.276;2023-04-06T00:02:23;101205.75;;;14.72;64.79
64739;BME280;51175;51.186;0.276;2023-04-06T00:02:54;101213.72;;;14.72;64.53
64739;BME280;51175;51.186;0.276;2023-04-06T00:03:24;101207.59;;;14.71;64.74
64739;BME280;51175;51.186;0.276;2023-04-06T00:03:55;101205.75;;;14.72;64.77
64739;BME280;51175;51.186;0.276;2023-04-06T00:04:25;101214.50;;;14.72;64.73
64739;BME280;51175;51.186;0.276;2023-04-06T00:04:56;101204.13;;;14.71;64.69
64739;BME280;51175;51.186;0.276;2023-04-06T00:05:27;101210.25;;;14.71;64.71
64739;BME280;51175;51.186;0.276;2023-04-06T00:06:00;101213.72;;;14.72;64.87
64739;BME280;51175;51.186;0.276;2023-04-06T00:06:30;101206.00;;;14.70;64.64
64739;BME280;51175;51.186;0.276;2023-04-06T00:07:02;101199.88;;;14.70;64.72
64739;BME280;51175;51.186;0.276;2023-04-06T00:07:33;101207.59;;;14.71;64.78
64739;BME280;51175;51.186;0.276;2023-04-06T00:08:03;101203.34;;;14.70;64.76
64739;BME280;51175;51.186;0.276;2023-04-06T00:08:34;101206.78;;;14.71;64.68
64739;BME280;51175;51.186;0.276;2023-04-06T00:09:04;101211.31;;;14.70;64.56
64739;BME280;51175;51.186;0.276;2023-04-06T00:09:35;101206.78;;;14.71;64.66
64739;BME280;51175;51.186;0.276;2023-04-06T00:10:06;101198.03;;;14.70;64.66
64739;BME280;51175;51.186;0.276;2023-04-06T00:10:36;101206.00;;;14.70;64.38
64739;BME280;51175;51.186;0.276;2023-04-06T00:11:06;101202.53;;;14.70;64.77
64739;BME280;51175;51.186;0.276;2023-04-06T00:11:37;101198.03;;;14.70;64.49
64739;BME280;51175;51.186;0.276;2023-04-06T00:12:07;101197.22;;;14.70;64.66
64739;BME280;51175;51.186;0.276;2023-04-06T00:12:37;101197.22;;;14.70;64.80
64739;BME280;51175;51.186;0.276;2023-04-06T00:13:08;101198.03;;;14.70;64.74
64739;BME280;51175;51.186;0.276;2023-04-06T00:13:38;101201.72;;;14.69;64.70
64739;BME280;51175;51.186;0.276;2023-04-06T00:14:09;101198.03;;;14.70;64.73
64739;BME280;51175;51.186;0.276;2023-04-06T00:14:39;101198.31;;;14.69;64.72
64739;BME280;51175;51.186;0.276;2023-04-06T00:15:10;101190.31;;;14.69;64.66
64739;BME280;51175;51.186;0.276;2023-04-06T00:15:41;101194.56;;;14.70;64.80
64739;BME280;51175;51.186;0.276;2023-04-06T00:16:11;101198.03;;;14.70;64.84
64739;BME280;51175;51.186;0.276;2023-04-06T00:16:41;101195.66;;;14.69;64.64
64739;BME280;51175;51.186;0.276;2023-04-06T00:17:12;101187.66;;;14.69;64.73
64739;BME280;51175;51.186;0.276;2023-04-06T00:17:42;101196.41;;;14.69;64.65
64739;BME280;51175;51.186;0.276;2023-04-06T00:18:12;101194.03;;;14.68;64.50
64739;BME280;51175;51.186;0.276;2023-04-06T00:18:43;101187.66;;;14.69;64.81
64739;BME280;51175;51.186;0.276;2023-04-06T00:19:14;101190.31;;;14.69;64.59
64739;BME280;51175;51.186;0.276;2023-04-06T00:19:44;101187.66;;;14.69;64.32
64739;BME280;51175;51.186;0.276;2023-04-06T00:20:15;101187.66;;;14.69;64.89
64739;BME280;51175;51.186;0.276;2023-04-06T00:20:46;101185.00;;;14.69;64.60
64739;BME280;51175;51.186;0.276;2023-04-06T00:21:16;101187.66;;;14.69;64.73
64739;BME280;51175;51.186;0.276;2023-04-06T00:21:46;101193.75;;;14.69;64.61
64739;BME280;51175;51.186;0.276;2023-04-06T00:22:17;101189.53;;;14.68;64.52
64739;BME280;51175;51.186;0.276;2023-04-06T00:22:47;101188.72;;;14.68;64.38
64739;BME280;51175;51.186;0.276;2023-04-06T00:23:18;101188.72;;;14.68;64.45
64739;BME280;51175;51.186;0.276;2023-04-06T00:23:48;101185.00;;;14.69;64.48
64739;BME280;51175;51.186;0.276;2023-04-06T00:24:18;101188.72;;;14.68;64.54
64739;BME280;51175;51.186;0.276;2023-04-06T00:24:49;101191.38;;;14.68;64.46
64739;BME280;51175;51.186;0.276;2023-04-06T00:25:19;101182.63;;;14.67;64.81
64739;BME280;51175;51.186;0.276;2023-04-06T00:25:50;101185.28;;;14.67;64.92
64739;BME280;51175;51.186;0.276;2023-04-06T00:26:20;101180.75;;;14.68;64.79
64739;BME280;51175;51.186;0.276;2023-04-06T00:26:50;101180.75;;;14.68;64.85
64739;BME280;51175;51.186;0.276;2023-04-06T00:27:21;101181.81;;;14.67;64.91
64739;BME280;51175;51.186;0.276;2023-04-06T00:27:51;101179.16;;;14.67;65.01
64739;BME280;51175;51.186;0.276;2023-04-06T00:28:22;101181.81;;;14.67;64.70
64739;BME280;51175;51.186;0.276;2023-04-06T00:28:55;101178.34;;;14.66;64.73
64739;BME280;51175;51.186;0.276;2023-04-06T00:29:26;101181.00;;;14.66;64.59
64739;BME280;51175;51.186;0.276;2023-04-06T00:29:56;101181.81;;;14.67;64.61
64739;BME280;51175;51.186;0.276;2023-04-06T00:30:27;101185.28;;;14.67;64.53
64739;BME280;51175;51.186;0.276;2023-04-06T00:30:57;101174.88;;;14.65;64.71
64739;BME280;51175;51.186;0.276;2023-04-06T00:31:28;101176.50;;;14.67;64.73
64739;BME280;51175;51.186;0.276;2023-04-06T00:31:58;101174.88;;;14.65;64.65
64739;BME280;51175;51.186;0.276;2023-04-06T00:32:28;101182.09;;;14.65;64.77
64739;BME280;51175;51.186;0.276;2023-04-06T00:32:59;101174.88;;;14.65;64.73
64739;BME280;51175;51.186;0.276;2023-04-06T00:33:30;101170.38;;;14.66;64.73
64739;BME280;51175;51.186;0.276;2023-04-06T00:34:01;101177.53;;;14.65;64.86
64739;BME280;51175;51.186;0.276;2023-04-06T00:34:31;101176.78;;;14.65;64.72
64739;BME280;51175;51.186;0.276;2023-04-06T00:35:02;101176.78;;;14.65;64.74
64739;BME280;51175;51.186;0.276;2023-04-06T00:35:33;101168.78;;;14.65;64.68
64739;BME280;51175;51.186;0.276;2023-04-06T00:36:04;101173.31;;;14.64;64.66
64739;BME280;51175;51.186;0.276;2023-04-06T00:36:35;101178.63;;;14.64;64.89
64739;BME280;51175;51.186;0.276;2023-04-06T00:37:06;101172.22;;;14.65;64.49
64739;BME280;51175;51.186;0.276;2023-04-06T00:37:36;101168.78;;;14.65;64.87
64739;BME280;51175;51.186;0.276;2023-04-06T00:38:06;101168.78;;;14.65;64.73
64739;BME280;51175;51.186;0.276;2023-04-06T00:38:37;101174.88;;;14.65;64.83
64739;BME280;51175;51.186;0.276;2023-04-06T00:39:07;101165.88;;;14.67;64.66
64739;BME280;51175;51.186;0.276;2023-04-06T00:39:37;101171.44;;;14.65;64.79
64739;BME280;51175;51.186;0.276;2023-04-06T00:40:08;101171.44;;;14.65;64.66
64739;BME280;51175;51.186;0.276;2023-04-06T00:40:39;101168.00;;;14.64;64.55
64739;BME280;51175;51.186;0.276;2023-04-06T00:41:09;101168.00;;;14.64;64.84
64739;BME280;51175;51.186;0.276;2023-04-06T00:41:45;101168.00;;;14.64;64.67
64739;BME280;51175;51.186;0.276;2023-04-06T00:42:16;101172.22;;;14.65;64.64
64739;BME280;51175;51.186;0.276;2023-04-06T00:42:48;101172.50;;;14.64;64.58
64739;BME280;51175;51.186;0.276;2023-04-06T00:43:18;101165.31;;;14.64;64.69
64739;BME280;51175;51.186;0.276;2023-04-06T00:43:49;101160.00;;;14.64;65.00
64739;BME280;51175;51.186;0.276;2023-04-06T00:44:20;101164.53;;;14.64;64.74
64739;BME280;51175;51.186;0.276;2023-04-06T00:44:54;101162.66;;;14.64;64.92
64739;BME280;51175;51.186;0.276;2023-04-06T00:45:25;101161.09;;;14.63;64.68
64739;BME280;51175;51.186;0.276;2023-04-06T00:45:55;101168.78;;;14.65;64.57
64739;BME280;51175;51.186;0.276;2023-04-06T00:46:26;101157.63;;;14.63;64.74
64739;BME280;51175;51.186;0.276;2023-04-06T00:46:57;101156.81;;;14.62;64.54
64739;BME280;51175;51.186;0.276;2023-04-06T00:47:27;101152.31;;;14.63;64.86
64739;BME280;51175;51.186;0.276;2023-04-06T00:47:58;101154.97;;;14.63;64.63
64739;BME280;51175;51.186;0.276;2023-04-06T00:48:28;101160.28;;;14.63;64.62
64739;BME280;51175;51.186;0.276;2023-04-06T00:49:00;101154.16;;;14.62;64.81
64739;BME280;51175;51.186;0.276;2023-04-06T00:49:32;101154.97;;;14.63;64.68
64739;BME280;51175;51.186;0.276;2023-04-06T00:50:03;101155.78;;;14.63;64.76
64739;BME280;51175;51.186;0.276;2023-04-06T00:50:34;101156.81;;;14.62;64.65
64739;BME280;51175;51.186;0.276;2023-04-06T00:51:04;101148.84;;;14.62;64.85
64739;BME280;51175;51.186;0.276;2023-04-06T00:51:35;101156.81;;;14.62;64.96
64739;BME280;51175;51.186;0.276;2023-04-06T00:52:05;101150.72;;;14.62;64.77
64739;BME280;51175;51.186;0.276;2023-04-06T00:52:35;101141.94;;;14.61;64.79
64739;BME280;51175;51.186;0.276;2023-04-06T00:53:06;101147.00;;;14.63;64.75
64739;BME280;51175;51.186;0.276;2023-04-06T00:53:36;101149.66;;;14.63;64.83
64739;BME280;51175;51.186;0.276;2023-04-06T00:54:07;101157.63;;;14.63;64.91
64739;BME280;51175;51.186;0.276;2023-04-06T00:54:37;101150.44;;;14.63;64.91
64739;BME280;51175;51.186;0.276;2023-04-06T00:55:08;101147.00;;;14.63;64.71
64739;BME280;51175;51.186;0.276;2023-04-06T00:55:38;101148.84;;;14.62;64.98
64739;BME280;51175;51.186;0.276;2023-04-06T00:56:09;101145.41;;;14.62;64.84
64739;BME280;51175;51.186;0.276;2023-04-06T00:56:42;101148.84;;;14.62;64.89
64739;BME280;51175;51.186;0.276;2023-04-06T00:57:14;101139.28;;;14.61;64.64
64739;BME280;51175;51.186;0.276;2023-04-06T00:57:44;101140.09;;;14.62;64.67
64739;BME280;51175;51.186;0.276;2023-04-06T00:58:15;101145.41;;;14.62;64.93
64739;BME280;51175;51.186;0.276;2023-04-06T00:58:45;101142.75;;;14.62;65.01
64739;BME280;51175;51.186;0.276;2023-04-06T00:59:15;101140.88;;;14.62;64.90
64739;BME280;51175;51.186;0.276;2023-04-06T00:59:46;101139.28;;;14.61;64.58
64739;BME280;51175;51.186;0.276;2023-04-06T01:00:17;101135.81;;;14.61;64.81
64739;BME280;51175;51.186;0.276;2023-04-06T01:00:47;101135.03;;;14.60;64.54
64739;BME280;51175;51.186;0.276;2023-04-06T01:01:18;101132.38;;;14.60;64.59
64739;BME280;51175;51.186;0.276;2023-04-06T01:01:48;101134.78;;;14.62;64.68
64739;BME280;51175;51.186;0.276;2023-04-06T01:02:18;101135.81;;;14.61;65.00
64739;BME280;51175;51.186;0.276;2023-04-06T01:02:49;101131.31;;;14.61;64.74
64739;BME280;51175;51.186;0.276;2023-04-06T01:03:20;101136.63;;;14.61;64.73
64739;BME280;51175;51.186;0.276;2023-04-06T01:03:51;101137.72;;;14.60;64.67
64739;BME280;51175;51.186;0.276;2023-04-06T01:04:21;101126.25;;;14.60;64.63
64739;BME280;51175;51.186;0.276;2023-04-06T01:04:54;101135.03;;;14.60;64.88
64739;BME280;51175;51.186;0.276;2023-04-06T01:05:25;101131.59;;;14.60;64.52
64739;BME280;51175;51.186;0.276;2023-04-06T01:05:55;101135.03;;;14.60;64.59
64739;BME280;51175;51.186;0.276;2023-04-06T01:06:28;101129.72;;;14.60;64.63
64739;BME280;51175;51.186;0.276;2023-04-06T01:06:58;101127.84;;;14.61;64.83
64739;BME280;51175;51.186;0.276;2023-04-06T01:07:29;101129.72;;;14.60;64.89
64739;BME280;51175;51.186;0.276;2023-04-06T01:07:59;101127.84;;;14.61;64.94
64739;BME280;51175;51.186;0.276;2023-04-06T01:08:30;101135.03;;;14.60;64.60
64739;BME280;51175;51.186;0.276;2023-04-06T01:09:00;101124.41;;;14.60;64.85
64739;BME280;51175;51.186;0.276;2023-04-06T01:09:31;101125.19;;;14.61;64.87
64739;BME280;51175;51.186;0.276;2023-04-06T01:10:01;101130.50;;;14.61;64.79
64739;BME280;51175;51.186;0.276;2023-04-06T01:10:33;101122.53;;;14.61;64.80
64739;BME280;51175;51.186;0.276;2023-04-06T01:11:03;101124.41;;;14.60;64.74
64739;BME280;51175;51.186;0.276;2023-04-06T01:11:35;101124.41;;;14.60;64.95
64739;BME280;51175;51.186;0.276;2023-04-06T01:12:05;101120.94;;;14.60;65.02
64739;BME280;51175;51.186;0.276;2023-04-06T01:12:36;101118.28;;;14.60;64.78
64739;BME280;51175;51.186;0.276;2023-04-06T01:13:07;101122.81;;;14.59;64.97
64739;BME280;51175;51.186;0.276;2023-04-06T01:13:38;101117.50;;;14.59;64.73
64739;BME280;51175;51.186;0.276;2023-04-06T01:14:08;101120.16;;;14.59;64.87
64739;BME280;51175;51.186;0.276;2023-04-06T01:14:39;101120.94;;;14.60;64.67
64739;BME280;51175;51.186;0.276;2023-04-06T01:15:10;101117.50;;;14.59;64.87
64739;BME280;51175;51.186;0.276;2023-04-06T01:15:41;101117.50;;;14.59;64.64
64739;BME280;51175;51.186;0.276;2023-04-06T01:16:12;101118.28;;;14.60;64.67
64739;BME280;51175;51.186;0.276;2023-04-06T01:16:43;101114.06;;;14.59;64.66
64739;BME280;51175;51.186;0.276;2023-04-06T01:17:13;101112.16;;;14.59;64.98
64739;BME280;51175;51.186;0.276;2023-04-06T01:17:44;101112.97;;;14.60;64.97
64739;BME280;51175;51.186;0.276;2023-04-06T01:18:15;101118.28;;;14.60;64.95
64739;BME280;51175;51.186;0.276;2023-04-06T01:18:45;101117.50;;;14.59;64.71
64739;BME280;51175;51.186;0.276;2023-04-06T01:19:16;101106.84;;;14.59;64.80
64739;BME280;51175;51.186;0.276;2023-04-06T01:19:46;101111.41;;;14.59;64.76
64739;BME280;51175;51.186;0.276;2023-04-06T01:20:19;101112.16;;;14.59;64.92
64739;BME280;51175;51.186;0.276;2023-04-06T01:20:49;101106.34;;;14.57;65.00
64739;BME280;51175;51.186;0.276;2023-04-06T01:21:20;101113.25;;;14.58;64.87
64739;BME280;51175;51.186;0.276;2023-04-06T01:21:50;101113.25;;;14.58;64.92
64739;BME280;51175;51.186;0.276;2023-04-06T01:22:23;101104.47;;;14.58;65.02
64739;BME280;51175;51.186;0.276;2023-04-06T01:22:54;101105.28;;;14.58;64.86
64739;BME280;51175;51.186;0.276;2023-04-06T01:23:24;101101.03;;;14.57;64.79
64739;BME280;51175;51.186;0.276;2023-04-06T01:23:55;101105.28;;;14.58;64.74
64739;BME280;51175;51.186;0.276;2023-04-06T01:24:25;101108.19;;;14.57;64.86
64739;BME280;51175;51.186;0.276;2023-04-06T01:24:55;101098.38;;;14.57;64.66
64739;BME280;51175;51.186;0.276;2023-04-06T01:25:26;101098.38;;;14.57;64.84
64739;BME280;51175;51.186;0.276;2023-04-06T01:25:57;101104.47;;;14.58;64.86
64739;BME280;51175;51.186;0.276;2023-04-06T01:26:27;101095.72;;;14.57;64.65
64739;BME280;51175;51.186;0.276;2023-04-06T01:26:59;101101.03;;;14.57;64.98
64739;BME280;51175;51.186;0.276;2023-04-06T01:27:31;101102.88;;;14.57;64.70
64739;BME280;51175;51.186;0.276;2023-04-06T01:28:01;101103.69;;;14.57;64.90
64739;BME280;51175;51.186;0.276;2023-04-06T01:28:32;101105.53;;;14.57;64.89
64739;BME280;51175;51.186;0.276;2023-04-06T01:29:02;101090.41;;;14.57;65.01
64739;BME280;51175;51.186;0.276;2023-04-06T01:29:33;101096.75;;;14.56;64.94
64739;BME280;51175;51.186;0.276;2023-04-06T01:30:04;101103.97;;;14.56;64.92
64739;BME280;51175;51.186;0.276;2023-04-06T01:30:34;101091.44;;;14.56;64.99
64739;BME280;51175;51.186;0.276;2023-04-06T01:31:08;101097.56;;;14.57;64.99
64739;BME280;51175;51.186;0.276;2023-04-06T01:31:39;101093.34;;;14.56;64.98
64739;BME280;51175;51.186;0.276;2023-04-06T01:32:10;101090.69;;;14.56;64.78
64739;BME280;51175;51.186;0.276;2023-04-06T01:32:40;101086.13;;;14.56;64.84
64739;BME280;51175;51.186;0.276;2023-04-06T01:33:11;101091.44;;;14.56;64.68
64739;BME280;51175;51.186;0.276;2023-04-06T01:33:41;101093.34;;;14.56;64.70
64739;BME280;51175;51.186;0.276;2023-04-06T01:34:11;101088.78;;;14.56;64.97
64739;BME280;51175;51.186;0.276;2023-04-06T01:34:42;101090.69;;;14.56;64.97
64739;BME280;51175;51.186;0.276;2023-04-06T01:35:12;101090.69;;;14.56;65.09
64739;BME280;51175;51.186;0.276;2023-04-06T01:35:43;101083.47;;;14.56;64.80
64739;BME280;51175;51.186;0.276;2023-04-06T01:36:13;101090.69;;;14.56;64.70
64739;BME280;51175;51.186;0.276;2023-04-06T01:36:44;101089.06;;;14.55;64.94
64739;BME280;51175;51.186;0.276;2023-04-06T01:37:15;101084.56;;;14.55;64.76
64739;BME280;51175;51.186;0.276;2023-04-06T01:37:48;101080.03;;;14.56;65.18
64739;BME280;51175;51.186;0.276;2023-04-06T01:38:18;101080.03;;;14.56;64.91
64739;BME280;51175;51.186;0.276;2023-04-06T01:38:49;101083.75;;;14.55;65.03
64739;BME280;51175;51.186;0.276;2023-04-06T01:39:20;101083.75;;;14.55;65.18
64739;BME280;51175;51.186;0.276;2023-04-06T01:39:50;101084.56;;;14.55;64.88
64739;BME280;51175;51.186;0.276;2023-04-06T01:40:21;101078.44;;;14.55;64.98
64739;BME280;51175;51.186;0.276;2023-04-06T01:40:52;101086.41;;;14.55;64.88
64739;BME280;51175;51.186;0.276;2023-04-06T01:41:23;101081.91;;;14.55;64.82
64739;BME280;51175;51.186;0.276;2023-04-06T01:41:53;101073.91;;;14.55;64.97
64739;BME280;51175;51.186;0.276;2023-04-06T01:42:23;101079.25;;;14.55;65.06
64739;BME280;51175;51.186;0.276;2023-04-06T01:42:54;101077.66;;;14.54;65.08
64739;BME280;51175;51.186;0.276;2023-04-06T01:43:24;101074.72;;;14.56;64.68
64739;BME280;51175;51.186;0.276;2023-04-06T01:43:54;101070.47;;;14.55;64.65
64739;BME280;51175;51.186;0.276;2023-04-06T01:44:25;101077.38;;;14.56;64.79
64739;BME280;51175;51.186;0.276;2023-04-06T01:44:55;101079.25;;;14.55;65.08
64739;BME280;51175;51.186;0.276;2023-04-06T01:45:26;101065.16;;;14.55;64.81
64739;BME280;51175;51.186;0.276;2023-04-06T01:45:56;101071.25;;;14.55;64.75
64739;BME280;51175;51.186;0.276;2023-04-06T01:46:26;101073.13;;;14.55;64.84
64739;BME280;51175;51.186;0.276;2023-04-06T01:46:57;101079.25;;;14.55;64.92
64739;BME280;51175;51.186;0.276;2023-04-06T01:47:27;101073.13;;;14.55;65.11
64739;BME280;51175;51.186;0.276;2023-04-06T01:47:57;101075.00;;;14.54;64.91
64739;BME280;51175;51.186;0.276;2023-04-06T01:48:28;101068.88;;;14.53;64.81
64739;BME280;51175;51.186;0.276;2023-04-06T01:48:58;101067.81;;;14.55;65.00
64739;BME280;51175;51.186;0.276;2023-04-06T01:49:29;101064.38;;;14.54;64.87
64739;BME280;51175;51.186;0.276;2023-04-06T01:49:59;101072.34;;;14.54;64.82
64739;BME280;51175;51.186;0.276;2023-04-06T01:50:30;101059.06;;;14.54;65.09
64739;BME280;51175;51.186;0.276;2023-04-06T01:51:00;101062.75;;;14.53;65.13
64739;BME280;51175;51.186;0.276;2023-04-06T01:51:31;101065.41;;;14.53;64.83
64739;BME280;51175;51.186;0.276;2023-04-06T01:52:01;101072.34;;;14.54;64.89
64739;BME280;51175;51.186;0.276;2023-04-06T01:52:32;101062.75;;;14.53;64.84
64739;BME280;51175;51.186;0.276;2023-04-06T01:53:03;101055.59;;;14.53;64.87
64739;BME280;51175;51.186;0.276;2023-04-06T01:53:36;101063.56;;;14.53;64.79
64739;BME280;51175;51.186;0.276;2023-04-06T01:54:07;101065.41;;;14.53;64.74
64739;BME280;51175;51.186;0.276;2023-04-06T01:54:37;101064.63;;;14.52;64.74
64739;BME280;51175;51.186;0.276;2023-04-06T01:55:07;101060.09;;;14.53;64.91
64739;BME280;51175;51.186;0.276;2023-04-06T01:55:38;101056.66;;;14.52;65.07
64739;BME280;51175;51.186;0.276;2023-04-06T01:56:08;101060.09;;;14.53;64.82
64739;BME280;51175;51.186;0.276;2023-04-06T01:56:39;101053.19;;;14.52;65.07
64739;BME280;51175;51.186;0.276;2023-04-06T01:57:10;101057.44;;;14.53;65.20
64739;BME280;51175;51.186;0.276;2023-04-06T01:57:41;101054.78;;;14.53;65.08
64739;BME280;51175;51.186;0.276;2023-04-06T01:58:11;101053.19;;;14.52;65.17
64739;BME280;51175;51.186;0.276;2023-04-06T01:58:42;101056.66;;;14.52;64.97
64739;BME280;51175;51.186;0.276;2023-04-06T01:59:12;101057.44;;;14.53;65.12
64739;BME280;51175;51.186;0.276;2023-04-06T01:59:43;101054.78;;;14.53;64.96
64739;BME280;51175;51.186;0.276;2023-04-06T02:00:13;101054.00;;;14.52;64.84
64739;BME280;51175;51.186;0.276;2023-04-06T02:00:44;101052.41;;;14.51;65.02
64739;BME280;51175;51.186;0.276;2023-04-06T02:01:14;101050.53;;;14.52;64.92
64739;BME280;51175;51.186;0.276;2023-04-06T02:01:45;101052.13;;;14.53;65.13
64739;BME280;51175;51.186;0.276;2023-04-06T02:02:15;101050.53;;;14.52;65.16
64739;BME280;51175;51.186;0.276;2023-04-06T02:02:46;101053.19;;;14.52;64.98
64739;BME280;51175;51.186;0.276;2023-04-06T02:03:16;101046.31;;;14.51;65.08
64739;BME280;51175;51.186;0.276;2023-04-06T02:03:46;101048.69;;;14.52;65.20
64739;BME280;51175;51.186;0.276;2023-04-06T02:04:17;101058.53;;;14.52;65.33
64739;BME280;51175;51.186;0.276;2023-04-06T02:04:47;101047.88;;;14.52;65.19
64739;BME280;51175;51.186;0.276;2023-04-06T02:05:18;101050.81;;;14.50;64.92
64739;BME280;51175;51.186;0.276;2023-04-06T02:05:49;101049.75;;;14.51;65.13
64739;BME280;51175;51.186;0.276;2023-04-06T02:06:20;101049.75;;;14.51;64.93
64739;BME280;51175;51.186;0.276;2023-04-06T02:06:50;101047.09;;;14.51;65.15
64739;BME280;51175;51.186;0.276;2023-04-06T02:07:21;101044.44;;;14.51;65.03
64739;BME280;51175;51.186;0.276;2023-04-06T02:07:51;101042.84;;;14.50;64.79
64739;BME280;51175;51.186;0.276;2023-04-06T02:08:21;101046.31;;;14.51;64.81
64739;BME280;51175;51.186;0.276;2023-04-06T02:08:52;101048.97;;;14.51;65.19
64739;BME280;51175;51.186;0.276;2023-04-06T02:09:22;101045.50;;;14.50;64.79
64739;BME280;51175;51.186;0.276;2023-04-06T02:09:54;101043.66;;;14.51;65.21
64739;BME280;51175;51.186;0.276;2023-04-06T02:10:25;101046.31;;;14.51;64.97
64739;BME280;51175;51.186;0.276;2023-04-06T02:10:56;101046.31;;;14.51;64.68
64739;BME280;51175;51.186;0.276;2023-04-06T02:11:26;101048.16;;;14.50;64.89
64739;BME280;51175;51.186;0.276;2023-04-06T02:11:56;101035.69;;;14.51;65.09
64739;BME280;51175;51.186;0.276;2023-04-06T02:12:27;101044.44;;;14.51;64.77
64739;BME280;51175;51.186;0.276;2023-04-06T02:12:57;101039.38;;;14.50;64.94
64739;BME280;51175;51.186;0.276;2023-04-06T02:13:27;101046.31;;;14.51;64.83
64739;BME280;51175;51.186;0.276;2023-04-06T02:13:58;101040.19;;;14.50;65.06
64739;BME280;51175;51.186;0.276;2023-04-06T02:14:30;101037.53;;;14.50;64.84
64739;BME280;51175;51.186;0.276;2023-04-06T02:15:01;101034.06;;;14.50;65.01
64739;BME280;51175;51.186;0.276;2023-04-06T02:15:31;101034.88;;;14.50;65.07
64739;BME280;51175;51.186;0.276;2023-04-06T02:16:01;101036.72;;;14.50;65.19
64739;BME280;51175;51.186;0.276;2023-04-06T02:16:32;101036.72;;;14.50;65.00
64739;BME280;51175;51.186;0.276;2023-04-06T02:17:03;101036.44;;;14.51;64.98
64739;BME280;51175;51.186;0.276;2023-04-06T02:17:33;101037.53;;;14.50;65.09
64739;BME280;51175;51.186;0.276;2023-04-06T02:18:04;101034.06;;;14.50;65.06
64739;BME280;51175;51.186;0.276;2023-04-06T02:18:34;101034.06;;;14.50;64.87
64739;BME280;51175;51.186;0.276;2023-04-06T02:19:05;101028.75;;;14.50;65.22
64739;BME280;51175;51.186;0.276;2023-04-06T02:19:35;101041.00;;;14.51;65.35
64739;BME280;51175;51.186;0.276;2023-04-06T02:20:06;101035.69;;;14.51;65.18
64739;BME280;51175;51.186;0.276;2023-04-06T02:20:36;101030.63;;;14.49;65.18
64739;BME280;51175;51.186;0.276;2023-04-06T02:21:07;101030.63;;;14.49;65.27
64739;BME280;51175;51.186;0.276;2023-04-06T02:21:37;101031.41;;;14.50;65.30
64739;BME280;51175;51.186;0.276;2023-04-06T02:22:07;101027.97;;;14.49;65.21
64739;BME280;51175;51.186;0.276;2023-04-06T02:22:38;101031.41;;;14.50;65.21
64739;BME280;51175;51.186;0.276;2023-04-06T02:23:09;101031.41;;;14.50;65.53
64739;BME280;51175;51.186;0.276;2023-04-06T02:23:40;101032.22;;;14.50;65.23
64739;BME280;51175;51.186;0.276;2023-04-06T02:24:10;101027.16;;;14.49;64.84
64739;BME280;51175;51.186;0.276;2023-04-06T02:24:40;101027.16;;;14.49;65.03
64739;BME280;51175;51.186;0.276;2023-04-06T02:25:11;101022.66;;;14.49;64.90
64739;BME280;51175;51.186;0.276;2023-04-06T02:25:41;101021.84;;;14.49;64.89
64739;BME280;51175;51.186;0.276;2023-04-06T02:26:12;101023.72;;;14.48;65.11
64739;BME280;51175;51.186;0.276;2023-04-06T02:26:43;101027.16;;;14.49;64.95
64739;BME280;51175;51.186;0.276;2023-04-06T02:27:14;101025.31;;;14.49;65.07
64739;BME280;51175;51.186;0.276;2023-04-06T02:27:44;101027.97;;;14.49;65.22
64739;BME280;51175;51.186;0.276;2023-04-06T02:28:15;101025.59;;;14.48;64.85
64739;BME280;51175;51.186;0.276;2023-04-06T02:28:45;101021.06;;;14.48;65.15
64739;BME280;51175;51.186;0.276;2023-04-06T02:29:16;101025.59;;;14.48;65.18
64739;BME280;51175;51.186;0.276;2023-04-06T02:29:46;101021.84;;;14.49;64.99
64739;BME280;51175;51.186;0.276;2023-04-06T02:30:16;101016.81;;;14.47;65.00
64739;BME280;51175;51.186;0.276;2023-04-06T02:30:47;101019.47;;;14.47;65.19
64739;BME280;51175;51.186;0.276;2023-04-06T02:31:17;101015.75;;;14.48;65.17
64739;BME280;51175;51.186;0.276;2023-04-06T02:31:47;101016.00;;;14.47;65.36
64739;BME280;51175;51.186;0.276;2023-04-06T02:32:18;101015.22;;;14.46;65.02
64739;BME280;51175;51.186;0.276;2023-04-06T02:32:48;101018.66;;;14.47;65.08
64739;BME280;51175;51.186;0.276;2023-04-06T02:33:18;101017.63;;;14.48;64.86
64739;BME280;51175;51.186;0.276;2023-04-06T02:33:49;101013.34;;;14.47;64.96
64739;BME280;51175;51.186;0.276;2023-04-06T02:34:19;101025.59;;;14.48;65.14
64739;BME280;51175;51.186;0.276;2023-04-06T02:34:50;101022.13;;;14.47;65.00
64739;BME280;51175;51.186;0.276;2023-04-06T02:35:20;101019.47;;;14.47;64.94
64739;BME280;51175;51.186;0.276;2023-04-06T02:35:50;101019.47;;;14.47;65.21
64739;BME280;51175;51.186;0.276;2023-04-06T02:36:21;101014.16;;;14.47;65.00
64739;BME280;51175;51.186;0.276;2023-04-06T02:36:51;101022.13;;;14.47;64.88
64739;BME280;51175;51.186;0.276;2023-04-06T02:37:21;101014.97;;;14.48;65.20
64739;BME280;51175;51.186;0.276;2023-04-06T02:37:54;101012.56;;;14.46;65.24
64739;BME280;51175;51.186;0.276;2023-04-06T02:38:24;101010.69;;;14.47;65.05
64739;BME280;51175;51.186;0.276;2023-04-06T02:38:54;101014.44;;;14.46;65.12
64739;BME280;51175;51.186;0.276;2023-04-06T02:39:27;101013.34;;;14.47;65.02
64739;BME280;51175;51.186;0.276;2023-04-06T02:39:58;101009.13;;;14.46;65.16
64739;BME280;51175;51.186;0.276;2023-04-06T02:40:28;101008.03;;;14.47;64.94